Time;durP1;ratioP1;P1;durP2;ratioP2;P2;SDS_P1;SDS_P2;PMS_P1;PMS_P2;Temp;Humidity;BMP_temperature;BMP_pressure;BME280_temperature;BME280_humidity;BME280_pressure;Samples;Min_cycle;Max_cycle;Signal;HPM_P1;HPM_P2
2023/12/02 00:01:18;;;;;;;;;;;;;;;0.05;75.24;96614.47;5108164;28;19932;-73
2023/12/02 00:04:08;;;;;;;;;;;;;;;0.15;75.64;96604.53;5107626;28;19928;-73
2023/12/02 00:06:57;;;;;;;;;;;;;;;0.13;75.57;96612.03;5111984;28;19931;-73
2023/12/02 00:09:45;;;;;;;;;;;;;;;0.32;74.32;96609.53;5113588;28;19998;-74
2023/12/02 00:12:33;;;;;;;;;;;;;;;0.68;73.63;96614.59;5107980;28;20010;-73
2023/12/02 00:15:21;;;;;;;;;;;;;;;0.49;73.96;96620.63;5113920;28;19928;-73
2023/12/02 00:18:09;;;;;;;;;;;;;;;0.71;72.88;96622.88;5113483;28;20060;-73
2023/12/02 00:20:58;;;;;;;;;;;;;;;0.74;73.43;96626.84;5107892;27;20433;-73
2023/12/02 00:23:46;;;;;;;;;;;;;;;0.65;73.33;96628.53;5107237;27;19919;-73
2023/12/02 00:26:34;;;;;;;;;;;;;;;0.47;74.17;96628.09;5125259;27;20006;-73
2023/12/02 00:29:22;;;;;;;;;;;;;;;0.60;74.40;96626.69;5113534;27;19945;-77
2023/12/02 00:32:10;;;;;;;;;;;;;;;0.76;73.69;96625.50;5104566;28;19926;-74
2023/12/02 00:34:58;;;;;;;;;;;;;;;0.70;73.99;96615.13;5117033;27;19920;-75
2023/12/02 00:37:48;;;;;;;;;;;;;;;0.90;73.53;96609.59;5114780;28;20015;-74
2023/12/02 00:40:36;;;;;;;;;;;;;;;0.86;73.54;96599.75;5108747;27;20369;-74
2023/12/02 00:43:24;;;;;;;;;;;;;;;0.75;73.84;96589.16;5116527;27;19927;-73
2023/12/02 00:46:12;;;;;;;;;;;;;;;0.66;73.58;96582.81;5109668;27;19927;-73
2023/12/02 00:49:00;;;;;;;;;;;;;;;0.81;73.64;96573.88;5105391;27;19919;-74
2023/12/02 00:51:48;;;;;;;;;;;;;;;0.84;72.84;96581.31;5111057;27;19970;-74
2023/12/02 00:54:37;;;;;;;;;;;;;;;0.82;72.95;96575.47;5111822;28;20486;-75
2023/12/02 00:57:25;;;;;;;;;;;;;;;0.79;73.50;96565.31;5108136;27;19920;-74
2023/12/02 01:00:14;;;;;;;;;;;;;;;0.93;72.79;96576.16;5124272;27;20248;-74
2023/12/02 01:03:02;;;;;;;;;;;;;;;0.22;74.73;96586.34;5096752;27;19924;-72
2023/12/02 01:05:50;;;;;;;;;;;;;;;0.29;73.76;96594.03;5105367;28;19945;-73
2023/12/02 01:08:38;;;;;;;;;;;;;;;0.42;73.74;96612.09;5111221;27;20395;-73
2023/12/02 01:11:28;;;;;;;;;;;;;;;0.49;73.56;96603.78;5090256;28;19947;-74
2023/12/02 01:14:16;;;;;;;;;;;;;;;0.59;72.99;96603.72;5107941;27;19977;-73
2023/12/02 01:17:04;;;;;;;;;;;;;;;-0.09;74.35;96592.94;5107554;27;19920;-73
2023/12/02 01:19:52;;;;;;;;;;;;;;;-0.06;74.53;96582.47;5105557;28;19968;-73
2023/12/02 01:22:40;;;;;;;;;;;;;;;0.19;74.48;96583.41;5094997;27;20412;-73
2023/12/02 01:25:28;;;;;;;;;;;;;;;0.54;73.32;96592.28;5107503;27;20008;-73
2023/12/02 01:28:17;;;;;;;;;;;;;;;0.37;73.19;96595.31;5106482;27;20011;-72
2023/12/02 01:31:06;;;;;;;;;;;;;;;0.74;72.71;96600.09;5107176;27;19919;-73
2023/12/02 01:33:54;;;;;;;;;;;;;;;0.72;72.91;96616.44;5110661;27;20531;-73
2023/12/02 01:36:42;;;;;;;;;;;;;;;0.83;72.27;96616.34;5109856;27;19920;-73
2023/12/02 01:39:31;;;;;;;;;;;;;;;0.45;73.08;96608.88;5111258;27;19923;-73
2023/12/02 01:42:19;;;;;;;;;;;;;;;0.63;73.13;96611.97;5103384;27;19926;-73
2023/12/02 01:45:09;;;;;;;;;;;;;;;0.53;72.64;96626.19;5110494;28;19994;-74
2023/12/02 01:48:01;;;;;;;;;;;;;;;0.43;72.42;96632.41;5103973;27;19931;-73
2023/12/02 01:50:49;;;;;;;;;;;;;;;0.55;71.92;96621.38;5105304;27;19958;-73
2023/12/02 01:53:37;;;;;;;;;;;;;;;0.26;72.87;96621.28;5111012;28;19928;-74
2023/12/02 01:56:26;;;;;;;;;;;;;;;0.37;72.75;96622.81;5110339;28;19927;-73
2023/12/02 01:59:14;;;;;;;;;;;;;;;0.59;72.77;96635.00;5112007;27;19926;-74
2023/12/02 02:02:03;;;;;;;;;;;;;;;0.78;72.20;96630.56;5105405;28;19927;-73
2023/12/02 02:04:51;;;;;;;;;;;;;;;0.62;72.64;96624.53;5103324;27;20037;-73
2023/12/02 02:07:39;;;;;;;;;;;;;;;0.28;73.60;96624.50;5104946;27;20376;-74
2023/12/02 02:10:27;;;;;;;;;;;;;;;0.43;72.78;96620.94;5105864;27;20357;-73
2023/12/02 02:13:17;;;;;;;;;;;;;;;0.61;72.56;96619.47;5108729;27;19926;-74
2023/12/02 02:16:08;;;;;;;;;;;;;;;0.31;73.24;96621.25;5102576;27;19928;-73
2023/12/02 02:18:57;;;;;;;;;;;;;;;0.06;74.31;96621.44;5107068;27;20060;-73
2023/12/02 02:21:47;;;;;;;;;;;;;;;0.58;73.51;96622.69;5101761;27;20049;-73
2023/12/02 02:24:35;;;;;;;;;;;;;;;0.75;72.37;96618.56;5101208;27;19920;-73
2023/12/02 02:27:23;;;;;;;;;;;;;;;0.66;71.59;96608.75;5104536;27;20018;-74
2023/12/02 02:30:11;;;;;;;;;;;;;;;0.73;72.28;96619.91;5107246;27;20396;-73
2023/12/02 02:32:59;;;;;;;;;;;;;;;0.94;71.51;96626.69;5105365;27;19926;-74
2023/12/02 02:35:48;;;;;;;;;;;;;;;0.95;71.37;96620.25;5110383;27;19967;-74
2023/12/02 02:38:37;;;;;;;;;;;;;;;1.07;71.28;96629.81;5111191;27;19920;-73
2023/12/02 02:41:27;;;;;;;;;;;;;;;0.82;71.36;96626.25;5106153;27;20408;-74
2023/12/02 02:44:15;;;;;;;;;;;;;;;0.89;71.13;96626.72;5107406;27;19928;-73
2023/12/02 02:47:03;;;;;;;;;;;;;;;0.95;71.03;96614.09;5105735;28;19924;-73
2023/12/02 02:49:53;;;;;;;;;;;;;;;0.86;71.19;96621.16;5107749;28;20045;-73
2023/12/02 02:52:41;;;;;;;;;;;;;;;0.75;72.09;96623.91;5106265;28;19923;-73
2023/12/02 02:55:30;;;;;;;;;;;;;;;0.87;71.63;96625.41;5113599;27;19920;-73
2023/12/02 02:58:19;;;;;;;;;;;;;;;0.62;71.99;96626.41;5116892;28;19923;-74
2023/12/02 03:01:07;;;;;;;;;;;;;;;0.70;71.41;96633.84;5110380;27;19927;-73
2023/12/02 03:03:55;;;;;;;;;;;;;;;0.66;71.64;96632.78;5109953;27;20384;-73
2023/12/02 03:06:45;;;;;;;;;;;;;;;0.79;71.61;96627.59;5106671;27;19924;-74
2023/12/02 03:09:33;;;;;;;;;;;;;;;0.89;71.49;96624.03;5103565;27;19958;-73
2023/12/02 03:12:22;;;;;;;;;;;;;;;0.22;72.88;96625.59;5106458;27;20133;-72
2023/12/02 03:15:10;;;;;;;;;;;;;;;0.41;72.72;96618.53;5110633;27;19924;-73
2023/12/02 03:17:58;;;;;;;;;;;;;;;0.40;72.24;96632.97;5110064;27;19920;-74
2023/12/02 03:20:47;;;;;;;;;;;;;;;0.51;72.16;96623.81;5106980;28;19926;-73
2023/12/02 03:23:35;;;;;;;;;;;;;;;0.61;71.56;96628.28;5096642;28;19928;-73
2023/12/02 03:26:24;;;;;;;;;;;;;;;0.56;71.95;96614.94;5095937;28;19938;-73
2023/12/02 03:29:13;;;;;;;;;;;;;;;0.74;71.22;96626.84;5102301;27;19920;-74
2023/12/02 03:32:01;;;;;;;;;;;;;;;0.42;72.04;96619.31;5090659;28;20004;-73
2023/12/02 03:34:49;;;;;;;;;;;;;;;0.41;72.64;96623.06;5104170;28;20010;-73
2023/12/02 03:37:37;;;;;;;;;;;;;;;0.14;72.54;96612.81;5106734;28;19973;-74
2023/12/02 03:40:25;;;;;;;;;;;;;;;-0.10;72.11;96607.34;5103889;28;19919;-74
2023/12/02 03:43:13;;;;;;;;;;;;;;;0.08;72.83;96620.06;5101291;28;19920;-73
2023/12/02 03:46:04;;;;;;;;;;;;;;;0.21;72.02;96630.16;5108174;28;20356;-73
2023/12/02 03:48:51;;;;;;;;;;;;;;;0.37;72.25;96643.41;5104703;28;19927;-72
2023/12/02 03:51:40;;;;;;;;;;;;;;;0.33;71.68;96653.84;5103916;28;20001;-73
2023/12/02 03:54:28;;;;;;;;;;;;;;;0.36;71.46;96655.97;5102915;28;19920;-73
2023/12/02 03:57:16;;;;;;;;;;;;;;;0.54;71.07;96661.75;5103073;28;20373;-72
2023/12/02 04:00:10;;;;;;;;;;;;;;;0.62;70.64;96661.16;5107440;28;20580;-73
2023/12/02 04:03:01;;;;;;;;;;;;;;;0.39;71.07;96652.75;5109386;28;20017;-73
2023/12/02 04:05:49;;;;;;;;;;;;;;;-0.13;72.66;96656.75;5091265;28;19920;-73
2023/12/02 04:08:37;;;;;;;;;;;;;;;0.10;72.39;96654.50;5107415;28;20660;-73
2023/12/02 04:11:25;;;;;;;;;;;;;;;-0.02;73.01;96650.28;5119203;27;20373;-74
2023/12/02 04:14:13;;;;;;;;;;;;;;;0.01;72.57;96654.28;5109249;28;19920;-74
2023/12/02 04:17:02;;;;;;;;;;;;;;;0.03;72.83;96664.69;5095201;28;19927;-73
2023/12/02 04:19:51;;;;;;;;;;;;;;;0.33;72.25;96659.19;5106683;28;20906;-73
2023/12/02 04:22:41;;;;;;;;;;;;;;;0.33;72.02;96661.88;5099838;28;19920;-73
2023/12/02 04:25:29;;;;;;;;;;;;;;;0.14;72.22;96666.22;5107122;28;20357;-73
2023/12/02 04:28:17;;;;;;;;;;;;;;;-0.18;72.49;96667.44;5106170;28;20475;-73
2023/12/02 04:31:06;;;;;;;;;;;;;;;-0.13;73.36;96663.94;5109349;28;19939;-73
2023/12/02 04:33:54;;;;;;;;;;;;;;;-0.05;72.72;96658.06;5091150;28;20003;-73
2023/12/02 04:36:44;;;;;;;;;;;;;;;-0.16;72.45;96654.63;5104339;28;20061;-73
2023/12/02 04:39:33;;;;;;;;;;;;;;;0.07;71.91;96660.41;5107478;28;20073;-73
2023/12/02 04:42:21;;;;;;;;;;;;;;;0.19;71.95;96650.97;5105313;28;19920;-72
2023/12/02 04:45:09;;;;;;;;;;;;;;;0.23;71.94;96649.38;5108985;28;20014;-73
2023/12/02 04:48:00;;;;;;;;;;;;;;;-0.18;72.28;96647.94;5105948;28;20005;-75
2023/12/02 04:50:49;;;;;;;;;;;;;;;-0.35;73.13;96653.63;5110244;28;19943;-73
2023/12/02 04:53:38;;;;;;;;;;;;;;;-0.02;72.66;96650.28;5094608;28;19919;-75
2023/12/02 04:56:26;;;;;;;;;;;;;;;0.15;71.72;96651.81;5110314;28;19935;-73
2023/12/02 04:59:14;;;;;;;;;;;;;;;-0.10;72.75;96658.88;5117433;28;19935;-73
2023/12/02 05:02:03;;;;;;;;;;;;;;;0.02;71.71;96669.22;5095359;28;20421;-73
2023/12/02 05:04:50;;;;;;;;;;;;;;;-0.22;72.29;96690.41;5108190;28;19920;-75
2023/12/02 05:07:38;;;;;;;;;;;;;;;-0.08;71.30;96690.63;5106529;27;19926;-73
2023/12/02 05:10:29;;;;;;;;;;;;;;;0.04;71.59;96703.66;5119611;27;19919;-73
2023/12/02 05:13:17;;;;;;;;;;;;;;;-0.20;72.47;96706.97;5108941;27;19926;-73
2023/12/02 05:16:06;;;;;;;;;;;;;;;0.07;71.35;96721.81;5108347;27;20064;-73
2023/12/02 05:18:55;;;;;;;;;;;;;;;-0.17;71.61;96730.41;5099360;28;19926;-74
2023/12/02 05:21:43;;;;;;;;;;;;;;;0.08;71.26;96731.44;5109576;27;20032;-74
2023/12/02 05:24:31;;;;;;;;;;;;;;;0.31;70.26;96725.44;5105156;28;20348;-77
2023/12/02 05:27:20;;;;;;;;;;;;;;;0.29;70.11;96730.28;5110919;27;19943;-73
2023/12/02 05:30:09;;;;;;;;;;;;;;;0.47;70.02;96737.66;5114252;27;19920;-74
2023/12/02 05:32:58;;;;;;;;;;;;;;;0.01;70.30;96741.59;5112161;27;19920;-74
2023/12/02 05:35:46;;;;;;;;;;;;;;;0.38;70.37;96751.88;5119332;27;19920;-74
2023/12/02 05:38:34;;;;;;;;;;;;;;;-0.09;71.10;96739.75;5109235;27;19923;-73
2023/12/02 05:41:22;;;;;;;;;;;;;;;0.21;70.55;96746.84;5116127;27;19920;-74
2023/12/02 05:44:11;;;;;;;;;;;;;;;-0.33;71.35;96759.00;5115713;28;19931;-77
2023/12/02 05:46:59;;;;;;;;;;;;;;;-0.10;71.06;96746.97;5114941;27;19923;-74
2023/12/02 05:49:47;;;;;;;;;;;;;;;-0.41;71.10;96758.78;5113735;27;20361;-75
2023/12/02 05:52:35;;;;;;;;;;;;;;;-0.10;71.24;96759.53;5109996;27;19930;-73
2023/12/02 05:55:23;;;;;;;;;;;;;;;-0.21;70.88;96756.06;5112644;27;19926;-73
2023/12/02 05:58:11;;;;;;;;;;;;;;;0.01;70.46;96757.63;5107219;27;19920;-73
2023/12/02 06:01:01;;;;;;;;;;;;;;;-0.14;70.34;96753.13;5107073;27;20323;-73
2023/12/02 06:03:49;;;;;;;;;;;;;;;-0.37;71.45;96757.97;5102174;27;19971;-75
2023/12/02 06:06:38;;;;;;;;;;;;;;;-0.25;71.21;96747.00;5106124;28;20385;-73
2023/12/02 06:09:26;;;;;;;;;;;;;;;-0.42;71.82;96741.97;5109211;27;19920;-73
2023/12/02 06:12:14;;;;;;;;;;;;;;;-0.59;72.34;96736.88;5108716;27;20400;-73
2023/12/02 06:15:02;;;;;;;;;;;;;;;-0.24;71.17;96740.59;5112081;27;19919;-73
2023/12/02 06:17:56;;;;;;;;;;;;;;;-0.55;71.53;96740.63;5103504;28;19927;-73
2023/12/02 06:20:44;;;;;;;;;;;;;;;-0.88;73.78;96741.19;5102797;28;19968;-73
2023/12/02 06:23:32;;;;;;;;;;;;;;;-0.60;72.12;96761.97;5106896;28;19942;-75
2023/12/02 06:26:23;;;;;;;;;;;;;;;-0.32;71.75;96771.31;5109718;28;20380;-73
2023/12/02 06:42:45;;;;;;;;;;;;;;;-0.33;71.60;96823.06;4960147;28;19930;-74
2023/12/02 06:45:35;;;;;;;;;;;;;;;-0.08;70.71;96824.13;4955812;28;19926;-75
2023/12/02 06:48:23;;;;;;;;;;;;;;;-0.42;70.81;96816.69;4953749;28;19926;-74
2023/12/02 06:51:11;;;;;;;;;;;;;;;-0.42;70.72;96819.34;4951787;28;19934;-73
2023/12/02 06:54:01;;;;;;;;;;;;;;;-0.69;71.21;96829.44;4954990;28;19926;-74
2023/12/02 06:56:49;;;;;;;;;;;;;;;-0.40;70.98;96827.88;4962291;28;19918;-79
2023/12/02 06:59:55;;;;;;;;;;;;;;;-0.32;71.09;96826.53;4976290;28;19998;-78
2023/12/02 07:02:43;;;;;;;;;;;;;;;-0.24;70.48;96834.00;4960013;28;19926;-78
2023/12/02 07:05:31;;;;;;;;;;;;;;;-0.27;70.02;96827.34;4968125;28;19916;-79
2023/12/02 07:08:25;;;;;;;;;;;;;;;-0.48;70.34;96825.75;4969203;28;20424;-79
2023/12/02 07:11:14;;;;;;;;;;;;;;;-1.04;71.32;96827.53;4973963;28;19984;-77
2023/12/02 07:14:05;;;;;;;;;;;;;;;-0.70;72.02;96833.19;4965668;28;19926;-76
2023/12/02 07:16:54;;;;;;;;;;;;;;;-0.55;71.51;96826.00;4963280;28;20283;-77
2023/12/02 07:19:43;;;;;;;;;;;;;;;-0.75;71.01;96836.66;4967991;28;19973;-76
2023/12/02 07:22:32;;;;;;;;;;;;;;;-1.08;72.18;96829.91;4965438;28;19934;-77
2023/12/02 07:25:21;;;;;;;;;;;;;;;-0.86;71.96;96837.69;4972964;28;19932;-76
2023/12/02 07:28:12;;;;;;;;;;;;;;;-0.85;71.92;96836.66;4948865;28;19930;-76
2023/12/02 07:31:04;;;;;;;;;;;;;;;-0.70;71.77;96847.31;4952352;28;19930;-76
2023/12/02 07:33:54;;;;;;;;;;;;;;;-0.55;71.14;96847.34;4947338;28;19926;-76
2023/12/02 07:36:43;;;;;;;;;;;;;;;-0.57;71.31;96851.34;4957402;28;19935;-77
2023/12/02 07:39:32;;;;;;;;;;;;;;;-0.48;71.11;96862.28;4960652;28;19980;-76
2023/12/02 07:42:21;;;;;;;;;;;;;;;-0.63;71.43;96863.09;4956239;28;19933;-77
2023/12/02 07:45:11;;;;;;;;;;;;;;;-0.75;72.13;96870.50;4947975;28;19931;-76
2023/12/02 07:48:00;;;;;;;;;;;;;;;-0.65;71.63;96879.34;4954970;28;20002;-77
2023/12/02 07:50:50;;;;;;;;;;;;;;;-0.85;71.50;96881.97;4953488;28;20448;-79
2023/12/02 07:53:39;;;;;;;;;;;;;;;-0.97;72.11;96898.19;4970573;28;19988;-76
2023/12/02 07:56:28;;;;;;;;;;;;;;;-1.20;72.37;96898.66;4955891;28;20021;-76
2023/12/02 07:59:21;;;;;;;;;;;;;;;-1.06;71.81;96903.25;4969296;28;19926;-78
2023/12/02 08:02:15;;;;;;;;;;;;;;;-0.62;70.83;96902.81;4989463;28;19970;-77
2023/12/02 08:05:03;;;;;;;;;;;;;;;-0.54;70.71;96907.63;4961896;28;19925;-78
2023/12/02 08:07:56;;;;;;;;;;;;;;;-0.63;70.18;96909.22;4964386;28;19930;-76
2023/12/02 08:10:47;;;;;;;;;;;;;;;-0.60;69.28;96908.69;4958511;28;19930;-77
2023/12/02 08:13:35;;;;;;;;;;;;;;;-0.24;69.58;96911.41;4964115;28;19934;-77
2023/12/02 08:16:23;;;;;;;;;;;;;;;-0.51;70.17;96924.19;4958251;28;19938;-76
2023/12/02 08:19:11;;;;;;;;;;;;;;;-0.63;70.13;96941.25;4958780;28;19926;-77
2023/12/02 08:22:03;;;;;;;;;;;;;;;-0.41;69.41;96934.88;4970338;28;19934;-76
2023/12/02 08:24:54;;;;;;;;;;;;;;;-0.29;69.65;96935.44;4958192;28;19934;-75
2023/12/02 08:27:43;;;;;;;;;;;;;;;-0.07;69.26;96938.63;4959387;28;20001;-74
2023/12/02 08:30:32;;;;;;;;;;;;;;;-0.12;69.01;96946.66;4966847;28;19976;-74
2023/12/02 08:33:21;;;;;;;;;;;;;;;-0.37;69.27;96943.97;4961597;28;21537;-74
2023/12/02 08:36:11;;;;;;;;;;;;;;;-0.12;69.47;96945.84;4957986;28;20020;-74
2023/12/02 08:38:59;;;;;;;;;;;;;;;-0.21;68.88;96948.25;4951086;28;19932;-74
2023/12/02 08:41:49;;;;;;;;;;;;;;;-0.49;69.53;96946.84;4982856;28;20289;-73
2023/12/02 08:44:38;;;;;;;;;;;;;;;-0.43;69.46;96956.47;4969956;28;19933;-73
2023/12/02 08:47:26;;;;;;;;;;;;;;;-0.48;69.81;96953.00;4966278;28;19973;-73
2023/12/02 08:50:15;;;;;;;;;;;;;;;-0.24;68.93;96959.47;4952159;28;19926;-74
2023/12/02 08:53:04;;;;;;;;;;;;;;;-0.48;68.98;96977.00;4948412;28;19930;-74
2023/12/02 08:55:53;;;;;;;;;;;;;;;-0.87;70.22;96972.09;4972406;28;19930;-73
2023/12/02 08:58:43;;;;;;;;;;;;;;;-0.79;70.49;96974.25;4955783;28;19926;-74
2023/12/02 09:01:32;;;;;;;;;;;;;;;-0.65;70.18;96975.38;4965273;28;20345;-75
2023/12/02 09:04:20;;;;;;;;;;;;;;;-0.60;70.05;96966.56;4982274;28;19938;-74
2023/12/02 09:07:09;;;;;;;;;;;;;;;-0.48;70.13;96969.00;4960636;28;20017;-74
2023/12/02 09:10:00;;;;;;;;;;;;;;;-0.42;69.74;96976.78;4980932;28;19930;-74
2023/12/02 09:12:49;;;;;;;;;;;;;;;-0.54;68.87;96982.31;4979225;28;19930;-74
2023/12/02 09:15:44;;;;;;;;;;;;;;;-0.66;68.95;96978.31;4961841;28;20719;-74
2023/12/02 09:18:39;;;;;;;;;;;;;;;-0.72;69.36;96990.81;4975172;28;19926;-74
2023/12/02 09:21:45;;;;;;;;;;;;;;;-0.68;70.01;96981.25;4961786;28;19934;-73
2023/12/02 09:24:34;;;;;;;;;;;;;;;-0.41;69.15;96982.91;4954190;28;19926;-75
2023/12/02 09:27:38;;;;;;;;;;;;;;;-0.47;68.65;96984.78;4972467;28;20012;-74
2023/12/02 09:30:26;;;;;;;;;;;;;;;-0.34;68.44;96986.91;4948623;28;20329;-76
2023/12/02 09:33:17;;;;;;;;;;;;;;;-0.45;68.35;96995.97;4952025;28;19934;-75
2023/12/02 09:51:17;;;;;;;;;;;;;;;-0.63;68.40;96988.47;5002853;28;19910;-81
2023/12/02 10:02:17;;;;;;;;;;;;;;;-0.66;68.17;97016.44;4981997;28;19927;-77
2023/12/02 10:05:40;;;;;;;;;;;;;;;-0.59;68.70;97022.31;4984507;28;20297;-80
2023/12/02 10:08:59;;;;;;;;;;;;;;;-0.36;68.18;97029.09;4993346;28;19926;-80
2023/12/02 10:11:56;;;;;;;;;;;;;;;-0.32;67.59;97019.50;4997318;28;19994;-80
2023/12/02 10:15:00;;;;;;;;;;;;;;;-0.57;68.38;97014.09;4994089;28;19926;-80
2023/12/02 10:19:02;;;;;;;;;;;;;;;-0.75;68.33;97006.53;4997353;28;19934;-79
2023/12/02 10:22:23;;;;;;;;;;;;;;;-0.56;68.30;97003.16;4977234;28;19917;-80
2023/12/02 10:25:33;;;;;;;;;;;;;;;-0.73;67.75;96999.88;4977623;22;19930;-77
2023/12/02 10:28:24;;;;;;;;;;;;;;;-0.30;68.27;97004.03;4967074;28;19944;-78
2023/12/02 10:31:13;;;;;;;;;;;;;;;-0.42;67.78;97010.66;4965198;28;19926;-80
2023/12/02 10:34:04;;;;;;;;;;;;;;;-0.20;67.67;97011.25;4965540;28;19922;-81
2023/12/02 10:36:53;;;;;;;;;;;;;;;-0.24;67.17;97012.03;4966736;28;19922;-80
2023/12/02 10:39:43;;;;;;;;;;;;;;;-0.11;68.07;97006.97;4958782;28;19969;-78
2023/12/02 10:42:34;;;;;;;;;;;;;;;-0.26;66.99;97014.97;4970791;28;19934;-80
2023/12/02 10:45:23;;;;;;;;;;;;;;;-0.29;68.04;97021.63;4965240;28;20547;-80
2023/12/02 10:48:12;;;;;;;;;;;;;;;-0.19;67.03;97015.53;4954990;28;19941;-80
2023/12/02 10:51:01;;;;;;;;;;;;;;;-0.45;66.93;97022.66;4956962;28;19945;-81
2023/12/02 10:53:49;;;;;;;;;;;;;;;-0.39;67.78;97024.28;4958087;28;20001;-78
2023/12/02 10:56:38;;;;;;;;;;;;;;;-0.30;67.57;97024.56;4968818;28;20109;-81
2023/12/02 10:59:31;;;;;;;;;;;;;;;-0.06;66.25;97012.31;4961538;28;19923;-82
2023/12/02 11:02:26;;;;;;;;;;;;;;;-0.10;65.11;97029.97;4968610;28;19934;-80
2023/12/02 11:05:16;;;;;;;;;;;;;;;0.04;64.66;97030.25;4958246;28;19952;-80
2023/12/02 11:08:05;;;;;;;;;;;;;;;-0.10;65.49;97045.97;4950972;28;20300;-80
2023/12/02 11:10:55;;;;;;;;;;;;;;;0.13;64.71;97049.22;4955961;28;19981;-80
2023/12/02 11:13:44;;;;;;;;;;;;;;;-0.14;64.24;97060.91;4958564;28;19954;-80
2023/12/02 11:16:35;;;;;;;;;;;;;;;-0.51;64.48;97062.94;4964199;28;19950;-80
2023/12/02 11:19:24;;;;;;;;;;;;;;;-0.69;65.57;97067.66;4968879;28;20380;-80
2023/12/02 11:22:24;;;;;;;;;;;;;;;-0.59;66.56;97067.69;4968209;28;19923;-80
2023/12/02 11:25:18;;;;;;;;;;;;;;;-0.30;66.89;97072.63;4951183;28;19933;-80
2023/12/02 11:28:15;;;;;;;;;;;;;;;-0.16;65.50;97083.59;4970776;28;20011;-79
2023/12/02 11:31:08;;;;;;;;;;;;;;;-0.46;66.31;97085.09;4965536;28;20283;-80
2023/12/02 11:34:04;;;;;;;;;;;;;;;-0.30;66.08;97096.63;4964027;28;19929;-80
2023/12/02 11:36:57;;;;;;;;;;;;;;;-0.18;66.30;97099.88;4966230;28;21319;-81
2023/12/02 11:39:46;;;;;;;;;;;;;;;-0.20;65.84;97093.22;4969519;28;20291;-82
2023/12/02 11:42:35;;;;;;;;;;;;;;;-0.07;65.48;97101.50;4953198;28;19922;-80
2023/12/02 11:45:26;;;;;;;;;;;;;;;0.03;65.46;97102.59;4968458;28;19934;-80
2023/12/02 11:48:17;;;;;;;;;;;;;;;-0.05;65.02;97106.59;4974063;28;19922;-80
2023/12/02 11:51:12;;;;;;;;;;;;;;;-0.55;65.72;97108.00;4968473;28;19922;-80
2023/12/02 11:54:15;;;;;;;;;;;;;;;-0.35;65.14;97105.41;4963147;28;19933;-80
2023/12/02 11:57:11;;;;;;;;;;;;;;;-0.16;65.62;97108.44;4965697;28;19922;-79
2023/12/02 12:00:05;;;;;;;;;;;;;;;-0.33;66.09;97105.16;4966882;28;20045;-78
2023/12/02 12:03:10;;;;;;;;;;;;;;;-0.30;66.66;97115.31;4969712;28;19930;-79
2023/12/02 12:06:01;;;;;;;;;;;;;;;-0.30;66.55;97118.00;4964533;28;19933;-80
2023/12/02 12:08:54;;;;;;;;;;;;;;;-0.39;66.36;97111.53;4966407;28;19934;-80
2023/12/02 12:11:42;;;;;;;;;;;;;;;-0.51;67.48;97121.63;4967142;28;20316;-80
2023/12/02 12:14:34;;;;;;;;;;;;;;;-0.54;67.75;97123.72;4953387;28;19922;-80
2023/12/02 12:17:24;;;;;;;;;;;;;;;-0.47;67.83;97136.06;4971623;28;19934;-80
2023/12/02 12:20:16;;;;;;;;;;;;;;;-0.42;67.25;97128.09;4972458;28;19933;-80
2023/12/02 12:23:05;;;;;;;;;;;;;;;-0.48;67.40;97137.09;4958217;28;19968;-79
2023/12/02 12:25:57;;;;;;;;;;;;;;;-0.41;66.80;97141.16;4960400;28;19928;-80
2023/12/02 12:28:45;;;;;;;;;;;;;;;-0.27;66.16;97138.81;4966855;28;19926;-80
2023/12/02 12:31:34;;;;;;;;;;;;;;;-0.16;67.03;97150.31;4967905;28;21639;-80
2023/12/02 12:34:24;;;;;;;;;;;;;;;-0.23;66.25;97155.09;4972058;28;20008;-80
2023/12/02 12:37:15;;;;;;;;;;;;;;;-0.25;66.74;97157.25;4956977;28;20032;-78
2023/12/02 12:40:04;;;;;;;;;;;;;;;-0.16;66.37;97175.19;4967725;28;19934;-81
2023/12/02 12:42:54;;;;;;;;;;;;;;;-0.38;67.13;97171.84;4969711;28;19945;-78
2023/12/02 12:45:45;;;;;;;;;;;;;;;-0.25;66.57;97181.28;4967810;28;19976;-81
2023/12/02 12:48:35;;;;;;;;;;;;;;;-0.30;66.96;97190.84;4950523;28;19934;-80
2023/12/02 12:51:24;;;;;;;;;;;;;;;-0.30;66.77;97190.06;4965675;28;19922;-80
2023/12/02 12:54:12;;;;;;;;;;;;;;;-0.30;66.72;97200.72;4964550;28;19958;-80
2023/12/02 12:57:02;;;;;;;;;;;;;;;-0.42;67.90;97202.81;4969431;28;19948;-81
2023/12/02 12:59:53;;;;;;;;;;;;;;;-0.33;67.91;97211.91;4971613;28;19922;-82
2023/12/02 13:02:49;;;;;;;;;;;;;;;-0.31;66.79;97223.16;4956761;28;20051;-81
2023/12/02 13:05:39;;;;;;;;;;;;;;;-0.04;66.95;97231.84;4968922;28;19930;-80
2023/12/02 13:08:30;;;;;;;;;;;;;;;-0.02;67.07;97234.25;4969548;28;20027;-80
2023/12/02 13:11:20;;;;;;;;;;;;;;;-0.14;66.80;97247.78;4972117;28;19968;-80
2023/12/02 13:14:15;;;;;;;;;;;;;;;-0.22;66.76;97255.47;4973083;28;19929;-80
2023/12/02 13:17:04;;;;;;;;;;;;;;;-0.22;67.94;97261.63;4953107;28;19922;-80
2023/12/02 13:19:53;;;;;;;;;;;;;;;-0.16;67.92;97265.94;4954496;28;19922;-81
2023/12/02 13:22:46;;;;;;;;;;;;;;;0.02;67.97;97266.56;4959569;28;19973;-80
2023/12/02 13:25:36;;;;;;;;;;;;;;;0.13;67.54;97281.59;4972579;28;19922;-81
2023/12/02 13:28:25;;;;;;;;;;;;;;;-0.20;68.27;97286.22;4971740;28;19922;-80
2023/12/02 13:31:14;;;;;;;;;;;;;;;0.16;67.94;97297.09;4958167;28;19926;-80
2023/12/02 13:34:08;;;;;;;;;;;;;;;-0.12;68.13;97298.25;4970875;28;19933;-80
2023/12/02 13:36:56;;;;;;;;;;;;;;;-0.05;68.61;97307.66;4957486;28;19928;-80
2023/12/02 13:39:44;;;;;;;;;;;;;;;-0.31;71.30;97305.88;4969015;28;19937;-79
2023/12/02 13:42:34;;;;;;;;;;;;;;;-0.50;70.67;97313.47;4971558;28;19929;-80
2023/12/02 13:45:22;;;;;;;;;;;;;;;-0.43;70.48;97313.25;4956144;28;20410;-82
2023/12/02 13:48:13;;;;;;;;;;;;;;;-0.51;71.48;97322.53;4964699;28;19922;-80
2023/12/02 13:51:06;;;;;;;;;;;;;;;-0.61;70.65;97333.94;4966549;28;20001;-80
2023/12/02 13:53:56;;;;;;;;;;;;;;;-0.48;70.96;97332.72;4972005;28;20375;-82
2023/12/02 13:56:48;;;;;;;;;;;;;;;-0.71;70.26;97344.50;4966628;28;19930;-82
2023/12/02 13:59:39;;;;;;;;;;;;;;;-0.61;70.86;97343.78;4963062;28;20364;-84
2023/12/02 14:02:34;;;;;;;;;;;;;;;-0.58;70.06;97354.78;4955698;28;20376;-84
2023/12/02 14:05:23;;;;;;;;;;;;;;;-0.59;69.81;97357.66;4963383;28;22185;-82
2023/12/02 14:08:13;;;;;;;;;;;;;;;-0.67;70.07;97360.81;4969693;28;20360;-79
2023/12/02 14:11:01;;;;;;;;;;;;;;;-0.44;69.69;97371.16;4965633;28;19922;-81
2023/12/02 14:13:51;;;;;;;;;;;;;;;-0.71;69.83;97376.50;4966120;28;19934;-81
2023/12/02 14:16:42;;;;;;;;;;;;;;;-0.48;68.94;97379.91;4964484;28;19922;-81
2023/12/02 14:19:41;;;;;;;;;;;;;;;-0.61;69.48;97387.28;4969876;28;19926;-85
2023/12/02 14:22:34;;;;;;;;;;;;;;;-0.68;69.26;97386.69;4969136;28;19976;-81
2023/12/02 14:25:28;;;;;;;;;;;;;;;-0.47;68.67;97392.22;4971671;28;20379;-81
2023/12/02 14:28:19;;;;;;;;;;;;;;;-0.91;69.63;97392.28;4973478;28;19932;-84
2023/12/02 14:31:13;;;;;;;;;;;;;;;-0.70;69.90;97394.13;4971477;28;20395;-81
2023/12/02 14:34:13;;;;;;;;;;;;;;;-0.92;69.51;97412.03;4962803;28;19922;-80
2023/12/02 14:37:07;;;;;;;;;;;;;;;-0.73;70.42;97417.84;4970349;28;19929;-82
2023/12/02 14:40:03;;;;;;;;;;;;;;;-0.63;69.65;97421.41;4970084;28;20013;-82
2023/12/02 14:42:56;;;;;;;;;;;;;;;-0.65;69.72;97412.84;4968609;28;20441;-80
2023/12/02 14:45:45;;;;;;;;;;;;;;;-0.52;69.24;97419.66;4965203;28;20454;-81
2023/12/02 14:48:33;;;;;;;;;;;;;;;-0.47;68.63;97426.91;4964562;28;19981;-82
2023/12/02 14:51:22;;;;;;;;;;;;;;;-0.70;70.61;97434.13;4969716;28;19929;-82
2023/12/02 14:54:11;;;;;;;;;;;;;;;-0.67;69.46;97433.66;4970267;28;20559;-82
2023/12/02 14:57:13;;;;;;;;;;;;;;;-0.71;69.95;97437.06;4961722;28;19922;-80
2023/12/02 15:00:07;;;;;;;;;;;;;;;-0.88;70.41;97447.81;4967504;28;20044;-81
2023/12/02 15:02:55;;;;;;;;;;;;;;;-0.98;69.80;97439.69;4963803;28;20090;-80
2023/12/02 15:05:44;;;;;;;;;;;;;;;-1.14;70.78;97452.81;4965403;28;20253;-80
2023/12/02 15:08:39;;;;;;;;;;;;;;;-1.24;71.11;97458.00;4971461;28;19929;-83
2023/12/02 15:11:28;;;;;;;;;;;;;;;-0.90;69.74;97476.59;4968217;28;19922;-82
2023/12/02 15:14:21;;;;;;;;;;;;;;;-0.84;69.20;97475.59;4971584;28;20375;-80
2023/12/02 15:17:10;;;;;;;;;;;;;;;-1.05;68.67;97482.53;4970606;28;19929;-80
2023/12/02 15:20:00;;;;;;;;;;;;;;;-0.94;68.77;97483.47;4972128;28;19930;-80
2023/12/02 15:22:49;;;;;;;;;;;;;;;-0.92;68.64;97486.69;4965764;28;20381;-82
2023/12/02 15:25:41;;;;;;;;;;;;;;;-0.86;68.54;97497.16;4960577;28;19922;-79
2023/12/02 15:28:47;;;;;;;;;;;;;;;-0.97;69.02;97497.28;4971295;28;20410;-80